Time;durP1;ratioP1;P1;durP2;ratioP2;P2;SDS_P1;SDS_P2;PMS_P1;PMS_P2;Temp;Humidity;BMP_temperature;BMP_pressure;BME280_temperature;BME280_humidity;BME280_pressure;Samples;Min_cycle;Max_cycle;Signal;HPM_P1;HPM_P2
2021/05/15 00:00:10;;;;;;;1.77;1.00;;;;;;;;;;1472462;40;20026;-64
2021/05/15 00:01:12;;;;;;;1.90;1.10;;;;;;;;;;1472236;40;20404;-64
2021/05/15 00:02:13;;;;;;;2.03;1.17;;;;;;;;;;1472383;40;20038;-64
2021/05/15 00:03:14;;;;;;;1.88;0.82;;;;;;;;;;1472702;40;20364;-64
2021/05/15 00:04:15;;;;;;;1.98;1.00;;;;;;;;;;1472376;40;20022;-64
2021/05/15 00:05:16;;;;;;;2.78;1.05;;;;;;;;;;1472216;40;20026;-64
2021/05/15 00:06:17;;;;;;;2.88;1.00;;;;;;;;;;1472263;40;20034;-64
2021/05/15 00:07:19;;;;;;;2.20;1.10;;;;;;;;;;1472437;40;20034;-64
2021/05/15 00:08:20;;;;;;;1.85;1.10;;;;;;;;;;1472332;40;20042;-64
2021/05/15 00:09:21;;;;;;;1.60;1.00;;;;;;;;;;1472396;40;20038;-64
2021/05/15 00:10:22;;;;;;;2.10;0.90;;;;;;;;;;1472338;40;20030;-64
2021/05/15 00:11:24;;;;;;;3.22;1.25;;;;;;;;;;1472388;40;20038;-64
2021/05/15 00:12:25;;;;;;;2.80;1.00;;;;;;;;;;1472234;40;20030;-64
2021/05/15 00:13:27;;;;;;;2.10;1.05;;;;;;;;;;1472281;40;20037;-64
2021/05/15 00:14:28;;;;;;;3.20;1.08;;;;;;;;;;1472426;40;20116;-64
2021/05/15 00:15:29;;;;;;;2.05;0.90;;;;;;;;;;1472190;40;20388;-64
2021/05/15 00:16:30;;;;;;;2.08;0.95;;;;;;;;;;1472364;40;20037;-64
2021/05/15 00:17:32;;;;;;;1.77;1.10;;;;;;;;;;1472271;40;20030;-64
2021/05/15 00:18:33;;;;;;;1.60;0.90;;;;;;;;;;1472280;40;20376;-64
2021/05/15 00:19:35;;;;;;;1.50;0.90;;;;;;;;;;1472233;40;20394;-64
2021/05/15 00:20:37;;;;;;;3.13;1.02;;;;;;;;;;1472240;40;20030;-64
2021/05/15 00:21:38;;;;;;;2.22;1.00;;;;;;;;;;1472176;40;20034;-64
2021/05/15 00:22:40;;;;;;;1.58;0.93;;;;;;;;;;1472139;40;20070;-64
2021/05/15 00:23:41;;;;;;;3.05;1.10;;;;;;;;;;1472292;40;20141;-64
2021/05/15 00:24:43;;;;;;;3.15;1.20;;;;;;;;;;1472132;40;20038;-64
2021/05/15 00:25:45;;;;;;;1.73;0.95;;;;;;;;;;1472203;40;20028;-64
2021/05/15 00:26:45;;;;;;;2.28;0.95;;;;;;;;;;1472157;40;20034;-64
2021/05/15 00:27:47;;;;;;;1.65;1.02;;;;;;;;;;1472376;40;20040;-64
2021/05/15 00:28:49;;;;;;;2.05;1.00;;;;;;;;;;1472179;40;20056;-64
2021/05/15 00:29:50;;;;;;;1.75;0.90;;;;;;;;;;1472462;40;20108;-64
2021/05/15 00:30:51;;;;;;;1.67;1.00;;;;;;;;;;1472174;40;20412;-64
2021/05/15 00:31:52;;;;;;;2.08;1.20;;;;;;;;;;1472192;40;20293;-64
2021/05/15 00:32:54;;;;;;;2.08;1.10;;;;;;;;;;1472076;40;20045;-64
2021/05/15 00:33:54;;;;;;;2.08;1.00;;;;;;;;;;1472359;40;20040;-64
2021/05/15 00:34:56;;;;;;;2.42;1.00;;;;;;;;;;1472385;40;20304;-64
2021/05/15 00:35:56;;;;;;;3.45;1.00;;;;;;;;;;1472144;40;20034;-64
2021/05/15 00:36:58;;;;;;;2.60;1.17;;;;;;;;;;1472235;40;20378;-64
2021/05/15 00:37:59;;;;;;;3.05;1.25;;;;;;;;;;1472138;40;20062;-64
2021/05/15 00:39:00;;;;;;;2.03;1.05;;;;;;;;;;1472311;40;20116;-64
2021/05/15 00:40:02;;;;;;;1.77;0.95;;;;;;;;;;1472106;40;20022;-64
2021/05/15 00:41:03;;;;;;;2.15;1.33;;;;;;;;;;1472214;40;20292;-64
2021/05/15 00:42:05;;;;;;;2.33;1.10;;;;;;;;;;1472299;40;20034;-63
2021/05/15 00:43:08;;;;;;;1.83;1.17;;;;;;;;;;1472325;40;20034;-64
2021/05/15 00:44:14;;;;;;;2.83;1.30;;;;;;;;;;1472183;40;20418;-64
2021/05/15 00:45:16;;;;;;;2.47;1.17;;;;;;;;;;1472121;40;20429;-64
2021/05/15 00:46:17;;;;;;;2.05;1.13;;;;;;;;;;1472128;40;20112;-64
2021/05/15 00:47:20;;;;;;;2.20;1.10;;;;;;;;;;1472157;40;20059;-63
2021/05/15 00:48:21;;;;;;;2.33;1.17;;;;;;;;;;1472295;40;20030;-64
2021/05/15 00:49:22;;;;;;;3.38;1.20;;;;;;;;;;1472207;40;20034;-64
2021/05/15 00:50:24;;;;;;;2.15;1.05;;;;;;;;;;1472112;40;20033;-63
2021/05/15 00:51:25;;;;;;;2.60;1.30;;;;;;;;;;1472326;40;20026;-64
2021/05/15 00:52:27;;;;;;;3.65;1.15;;;;;;;;;;1472066;40;20309;-64
2021/05/15 00:53:28;;;;;;;2.10;1.20;;;;;;;;;;1472278;40;20030;-64
2021/05/15 00:54:29;;;;;;;2.63;1.35;;;;;;;;;;1472126;40;20037;-64
2021/05/15 00:55:32;;;;;;;2.80;1.20;;;;;;;;;;1472146;40;20041;-64
2021/05/15 00:56:33;;;;;;;1.80;1.02;;;;;;;;;;1472269;40;20037;-64
2021/05/15 00:57:35;;;;;;;2.50;1.17;;;;;;;;;;1472120;40;20037;-64
2021/05/15 00:58:38;;;;;;;2.22;1.17;;;;;;;;;;1471612;40;20030;-64
2021/05/15 00:59:41;;;;;;;2.08;1.20;;;;;;;;;;1472105;40;20033;-64
2021/05/15 01:00:42;;;;;;;1.75;1.05;;;;;;;;;;1472257;40;20030;-64
2021/05/15 01:01:43;;;;;;;1.90;1.15;;;;;;;;;;1472091;40;20030;-64
2021/05/15 01:02:44;;;;;;;2.97;1.35;;;;;;;;;;1472124;40;20064;-64
2021/05/15 01:03:46;;;;;;;1.95;0.88;;;;;;;;;;1472104;40;20305;-64
2021/05/15 01:04:47;;;;;;;1.50;1.00;;;;;;;;;;1472130;40;20071;-64
2021/05/15 01:05:48;;;;;;;1.83;1.10;;;;;;;;;;1472095;40;20402;-64
2021/05/15 01:06:50;;;;;;;1.48;0.95;;;;;;;;;;1472254;40;20030;-64
2021/05/15 01:07:59;;;;;;;2.60;1.40;;;;;;;;;;1472111;40;20079;-64
2021/05/15 01:09:00;;;;;;;2.13;1.20;;;;;;;;;;1472067;40;20397;-64
2021/05/15 01:10:04;;;;;;;3.17;1.17;;;;;;;;;;1472268;40;20081;-64
2021/05/15 01:11:05;;;;;;;2.60;1.10;;;;;;;;;;1472075;40;20034;-64
2021/05/15 01:12:09;;;;;;;2.20;1.00;;;;;;;;;;1471970;40;20390;-64
2021/05/15 01:13:12;;;;;;;2.65;1.17;;;;;;;;;;1472095;40;20060;-64
2021/05/15 01:14:14;;;;;;;3.25;1.00;;;;;;;;;;1472109;40;20405;-64
2021/05/15 01:15:16;;;;;;;2.47;0.73;;;;;;;;;;1472107;40;20400;-64
2021/05/15 01:16:19;;;;;;;2.53;1.00;;;;;;;;;;1472077;40;20382;-64
2021/05/15 01:17:20;;;;;;;2.00;1.10;;;;;;;;;;1472091;40;20033;-64
2021/05/15 01:18:25;;;;;;;1.58;1.08;;;;;;;;;;1472211;40;20382;-64
2021/05/15 01:19:26;;;;;;;2.90;1.10;;;;;;;;;;1472135;40;20069;-64
2021/05/15 01:20:31;;;;;;;2.28;1.05;;;;;;;;;;1472199;40;20069;-64
2021/05/15 01:21:34;;;;;;;1.92;1.15;;;;;;;;;;1472138;40;20022;-64
2021/05/15 01:22:35;;;;;;;1.73;0.90;;;;;;;;;;1472188;40;20045;-64
2021/05/15 01:23:36;;;;;;;2.03;0.90;;;;;;;;;;1472271;40;20400;-64
2021/05/15 01:24:38;;;;;;;1.52;0.90;;;;;;;;;;1472027;40;20394;-64
2021/05/15 01:25:39;;;;;;;1.85;1.00;;;;;;;;;;1472049;40;20033;-64
2021/05/15 01:26:40;;;;;;;2.15;1.00;;;;;;;;;;1472227;40;20090;-64
2021/05/15 01:27:42;;;;;;;1.42;0.85;;;;;;;;;;1472214;40;20370;-64
2021/05/15 01:28:43;;;;;;;1.50;0.82;;;;;;;;;;1472210;40;20042;-64
2021/05/15 01:29:45;;;;;;;1.70;0.90;;;;;;;;;;1472179;40;20038;-64
2021/05/15 01:30:46;;;;;;;1.60;0.90;;;;;;;;;;1472195;40;20032;-64
2021/05/15 01:31:47;;;;;;;1.48;0.90;;;;;;;;;;1472057;40;20034;-64
2021/05/15 01:32:48;;;;;;;1.70;0.98;;;;;;;;;;1471947;40;20038;-64
2021/05/15 01:33:51;;;;;;;1.67;0.88;;;;;;;;;;1472086;40;20467;-64
2021/05/15 01:34:51;;;;;;;1.95;1.00;;;;;;;;;;1472053;40;20026;-64
2021/05/15 01:35:53;;;;;;;2.33;0.95;;;;;;;;;;1471988;40;20034;-64
2021/05/15 01:36:55;;;;;;;1.48;0.70;;;;;;;;;;1472201;40;20026;-64
2021/05/15 01:37:57;;;;;;;1.30;0.80;;;;;;;;;;1472287;40;20026;-64
2021/05/15 01:38:57;;;;;;;1.27;0.80;;;;;;;;;;1471979;40;20040;-64
2021/05/15 01:39:59;;;;;;;1.67;0.90;;;;;;;;;;1472035;40;20038;-64
2021/05/15 01:41:01;;;;;;;1.75;0.98;;;;;;;;;;1471478;40;20386;-64
2021/05/15 01:42:02;;;;;;;2.60;0.93;;;;;;;;;;1471462;40;20408;-64
2021/05/15 01:43:03;;;;;;;2.05;1.02;;;;;;;;;;1471991;40;20399;-64
2021/05/15 01:44:06;;;;;;;1.63;0.90;;;;;;;;;;1471996;40;20030;-64
2021/05/15 01:45:08;;;;;;;1.73;0.80;;;;;;;;;;1471968;40;20056;-64
2021/05/15 01:46:10;;;;;;;1.65;0.70;;;;;;;;;;1472001;40;20384;-64
2021/05/15 01:47:11;;;;;;;1.65;0.73;;;;;;;;;;1471971;40;20026;-64
2021/05/15 01:48:16;;;;;;;1.83;0.90;;;;;;;;;;1471950;40;20061;-64
2021/05/15 01:49:19;;;;;;;1.42;0.90;;;;;;;;;;1472249;40;20034;-64
2021/05/15 01:50:20;;;;;;;1.35;0.80;;;;;;;;;;1472165;40;20036;-64
2021/05/15 01:51:21;;;;;;;1.95;0.80;;;;;;;;;;1472193;40;20022;-64
2021/05/15 01:52:23;;;;;;;1.80;0.90;;;;;;;;;;1471880;40;20507;-64
2021/05/15 01:53:25;;;;;;;1.38;0.90;;;;;;;;;;1471986;40;20290;-64
2021/05/15 01:54:26;;;;;;;0.90;0.68;;;;;;;;;;1472254;40;20030;-64
2021/05/15 01:55:27;;;;;;;1.60;0.85;;;;;;;;;;1472013;40;20030;-64
2021/05/15 01:56:29;;;;;;;1.48;0.73;;;;;;;;;;1472026;40;20030;-64
2021/05/15 01:57:30;;;;;;;1.90;0.80;;;;;;;;;;1472184;40;20104;-64
2021/05/15 01:58:32;;;;;;;1.00;0.70;;;;;;;;;;1472069;40;20046;-64
2021/05/15 01:59:32;;;;;;;1.40;0.80;;;;;;;;;;1471935;40;20384;-64
2021/05/15 02:00:34;;;;;;;2.33;0.95;;;;;;;;;;1471920;40;20034;-64
2021/05/15 02:01:35;;;;;;;1.33;0.70;;;;;;;;;;1471950;40;20030;-64
2021/05/15 02:02:36;;;;;;;1.73;0.80;;;;;;;;;;1471916;40;20393;-64
2021/05/15 02:03:44;;;;;;;1.70;0.90;;;;;;;;;;1472212;40;20034;-64
2021/05/15 02:04:45;;;;;;;1.85;1.00;;;;;;;;;;1472047;40;20027;-64
2021/05/15 02:05:47;;;;;;;1.98;0.70;;;;;;;;;;1472089;40;20034;-64
2021/05/15 02:06:48;;;;;;;1.58;0.77;;;;;;;;;;1472124;40;20116;-64
2021/05/15 02:07:50;;;;;;;0.95;0.70;;;;;;;;;;1472122;40;20035;-64
2021/05/15 02:08:51;;;;;;;2.50;0.70;;;;;;;;;;1472006;40;20389;-64
2021/05/15 02:09:52;;;;;;;1.42;0.90;;;;;;;;;;1472013;40;20082;-64
2021/05/15 02:10:56;;;;;;;2.53;0.90;;;;;;;;;;1472702;40;20030;-64
2021/05/15 02:11:57;;;;;;;2.75;1.02;;;;;;;;;;1472734;40;20030;-64
2021/05/15 02:12:58;;;;;;;1.40;0.90;;;;;;;;;;1472455;40;20026;-64
2021/05/15 02:13:59;;;;;;;1.40;0.90;;;;;;;;;;1472543;40;20096;-63
2021/05/15 02:15:00;;;;;;;3.25;0.70;;;;;;;;;;1472517;40;20131;-64
2021/05/15 02:16:02;;;;;;;1.23;0.70;;;;;;;;;;1472756;40;20042;-64
2021/05/15 02:17:02;;;;;;;1.40;0.90;;;;;;;;;;1472517;40;20393;-64
2021/05/15 02:18:05;;;;;;;1.20;0.90;;;;;;;;;;1472559;40;20030;-64
2021/05/15 02:19:06;;;;;;;1.65;0.90;;;;;;;;;;1472670;40;20037;-64
2021/05/15 02:20:09;;;;;;;3.10;1.20;;;;;;;;;;1472737;40;20046;-64
2021/05/15 02:21:10;;;;;;;2.10;0.88;;;;;;;;;;1472695;40;20037;-64
2021/05/15 02:22:12;;;;;;;1.90;0.80;;;;;;;;;;1472628;40;20104;-64
2021/05/15 02:23:14;;;;;;;2.38;0.80;;;;;;;;;;1472508;40;20416;-64
2021/05/15 02:24:15;;;;;;;1.38;0.80;;;;;;;;;;1472546;40;20053;-64
2021/05/15 02:25:17;;;;;;;2.33;0.80;;;;;;;;;;1472503;40;20386;-64
2021/05/15 02:26:18;;;;;;;1.67;0.90;;;;;;;;;;1472684;40;20070;-64
2021/05/15 02:27:19;;;;;;;1.17;0.70;;;;;;;;;;1472791;40;20050;-64
2021/05/15 02:28:21;;;;;;;1.95;1.00;;;;;;;;;;1472584;40;20274;-64
2021/05/15 02:29:22;;;;;;;1.52;1.00;;;;;;;;;;1472541;40;20403;-64
2021/05/15 02:30:25;;;;;;;1.40;0.90;;;;;;;;;;1472495;40;20037;-64
2021/05/15 02:31:26;;;;;;;2.35;0.93;;;;;;;;;;1472532;40;20057;-64
2021/05/15 02:32:27;;;;;;;1.77;0.90;;;;;;;;;;1472497;40;20045;-64
2021/05/15 02:33:28;;;;;;;1.58;0.63;;;;;;;;;;1472782;40;20026;-64
2021/05/15 02:34:29;;;;;;;1.83;0.90;;;;;;;;;;1472671;40;20116;-64
2021/05/15 02:35:31;;;;;;;1.48;0.80;;;;;;;;;;1472500;40;20311;-64
2021/05/15 02:36:32;;;;;;;1.90;0.90;;;;;;;;;;1472678;40;20034;-64
2021/05/15 02:37:33;;;;;;;2.58;1.05;;;;;;;;;;1472575;40;20034;-64
2021/05/15 02:38:35;;;;;;;1.98;0.90;;;;;;;;;;1472631;40;20088;-63
2021/05/15 02:39:37;;;;;;;2.35;0.93;;;;;;;;;;1472446;40;20119;-64
2021/05/15 02:40:38;;;;;;;2.25;0.95;;;;;;;;;;1472425;40;20034;-64
2021/05/15 02:41:39;;;;;;;2.90;0.80;;;;;;;;;;1472686;40;20030;-64
2021/05/15 02:42:40;;;;;;;1.02;0.80;;;;;;;;;;1472445;40;20046;-64
2021/05/15 02:43:41;;;;;;;1.85;0.77;;;;;;;;;;1472444;40;20034;-64
2021/05/15 02:44:42;;;;;;;1.95;0.70;;;;;;;;;;1472458;40;20413;-64
2021/05/15 02:45:44;;;;;;;1.58;0.80;;;;;;;;;;1472597;40;20055;-63
2021/05/15 02:46:45;;;;;;;2.40;0.80;;;;;;;;;;1472427;40;20038;-63
2021/05/15 02:47:46;;;;;;;1.52;0.82;;;;;;;;;;1472663;40;20037;-64
2021/05/15 02:48:47;;;;;;;1.80;0.77;;;;;;;;;;1472637;40;20030;-64
2021/05/15 02:49:48;;;;;;;1.45;0.75;;;;;;;;;;1472446;40;20030;-64
2021/05/15 02:50:51;;;;;;;1.52;0.80;;;;;;;;;;1472664;40;20037;-64
2021/05/15 02:51:52;;;;;;;1.20;0.70;;;;;;;;;;1472633;40;20034;-64
2021/05/15 02:52:54;;;;;;;1.50;0.80;;;;;;;;;;1472396;40;20406;-64
2021/05/15 02:53:56;;;;;;;1.45;0.77;;;;;;;;;;1472405;40;20134;-64
2021/05/15 02:54:57;;;;;;;1.58;0.80;;;;;;;;;;1472432;40;20301;-64
2021/05/15 02:56:04;;;;;;;1.70;0.80;;;;;;;;;;1472437;40;20030;-64
2021/05/15 02:57:06;;;;;;;1.70;0.80;;;;;;;;;;1472411;40;20030;-64
2021/05/15 02:58:08;;;;;;;1.70;0.70;;;;;;;;;;1472593;40;20118;-64
2021/05/15 02:59:09;;;;;;;1.80;0.77;;;;;;;;;;1472431;40;20034;-64
2021/05/15 03:00:13;;;;;;;1.20;0.70;;;;;;;;;;1472438;40;20030;-64
2021/05/15 03:01:14;;;;;;;1.55;0.85;;;;;;;;;;1472444;40;20041;-64
2021/05/15 03:02:15;;;;;;;1.20;0.80;;;;;;;;;;1472577;40;20034;-64
2021/05/15 03:03:16;;;;;;;1.02;0.70;;;;;;;;;;1472622;40;20036;-64
2021/05/15 03:04:17;;;;;;;2.38;0.80;;;;;;;;;;1472405;40;20342;-64
2021/05/15 03:05:20;;;;;;;1.40;0.95;;;;;;;;;;1472497;40;20033;-64
2021/05/15 03:06:21;;;;;;;2.03;1.20;;;;;;;;;;1472406;40;20037;-64
2021/05/15 03:07:22;;;;;;;2.08;0.93;;;;;;;;;;1472399;40;20271;-64
2021/05/15 03:08:23;;;;;;;0.88;0.60;;;;;;;;;;1472408;40;20090;-64
2021/05/15 03:09:25;;;;;;;3.95;0.90;;;;;;;;;;1472553;40;20030;-64
2021/05/15 03:10:27;;;;;;;2.65;0.90;;;;;;;;;;1472388;40;20301;-63
2021/05/15 03:11:28;;;;;;;1.50;0.88;;;;;;;;;;1472397;40;20026;-64
2021/05/15 03:12:29;;;;;;;1.67;0.90;;;;;;;;;;1472391;40;20119;-64
2021/05/15 03:13:30;;;;;;;2.28;0.90;;;;;;;;;;1472580;40;20032;-64
2021/05/15 03:14:31;;;;;;;1.13;0.70;;;;;;;;;;1472396;40;20390;-64
2021/05/15 03:15:32;;;;;;;1.92;0.73;;;;;;;;;;1472634;40;20053;-64
2021/05/15 03:16:33;;;;;;;1.40;0.85;;;;;;;;;;1472407;40;20337;-64
2021/05/15 03:17:35;;;;;;;1.70;0.80;;;;;;;;;;1472534;40;20030;-64
2021/05/15 03:18:36;;;;;;;3.20;1.00;;;;;;;;;;1472307;40;20026;-64
2021/05/15 03:19:37;;;;;;;1.08;0.60;;;;;;;;;;1472337;40;20030;-64
2021/05/15 03:20:38;;;;;;;1.75;0.90;;;;;;;;;;1472493;40;20026;-64
2021/05/15 03:21:39;;;;;;;1.38;0.80;;;;;;;;;;1471985;40;20389;-64
2021/05/15 03:22:40;;;;;;;1.48;0.90;;;;;;;;;;1472556;40;20108;-64
2021/05/15 03:23:41;;;;;;;2.20;0.90;;;;;;;;;;1472354;40;20408;-64
2021/05/15 03:24:43;;;;;;;2.00;0.75;;;;;;;;;;1472508;40;20034;-64
2021/05/15 03:25:45;;;;;;;1.48;0.75;;;;;;;;;;1472529;40;20037;-64
2021/05/15 03:26:45;;;;;;;2.85;0.80;;;;;;;;;;1472380;40;20309;-64
2021/05/15 03:27:47;;;;;;;1.50;0.80;;;;;;;;;;1472552;40;20034;-64
2021/05/15 03:28:48;;;;;;;0.82;0.65;;;;;;;;;;1472377;40;20357;-64
2021/05/15 03:29:49;;;;;;;2.97;0.98;;;;;;;;;;1472380;40;20033;-64
2021/05/15 03:30:50;;;;;;;1.33;0.80;;;;;;;;;;1472410;40;20030;-63
2021/05/15 03:31:51;;;;;;;2.05;0.85;;;;;;;;;;1472348;40;20034;-64
2021/05/15 03:32:53;;;;;;;2.25;0.90;;;;;;;;;;1472491;40;20086;-63
2021/05/15 03:33:54;;;;;;;1.65;0.80;;;;;;;;;;1472574;40;20041;-64
2021/05/15 03:34:55;;;;;;;1.67;1.10;;;;;;;;;;1472306;40;20037;-64
2021/05/15 03:35:56;;;;;;;2.75;0.85;;;;;;;;;;1472294;40;20030;-64
2021/05/15 03:36:58;;;;;;;2.65;1.00;;;;;;;;;;1472329;40;20034;-64
2021/05/15 03:37:59;;;;;;;1.05;0.70;;;;;;;;;;1472382;40;20305;-64
2021/05/15 03:39:00;;;;;;;1.85;0.98;;;;;;;;;;1472390;40;20031;-64
2021/05/15 03:40:03;;;;;;;1.83;0.98;;;;;;;;;;1472475;40;20030;-64
2021/05/15 03:41:05;;;;;;;2.08;0.85;;;;;;;;;;1472516;40;20077;-64
2021/05/15 03:42:05;;;;;;;1.25;0.85;;;;;;;;;;1472247;40;20386;-64
2021/05/15 03:43:12;;;;;;;1.33;0.75;;;;;;;;;;1472568;40;20120;-64
2021/05/15 03:44:13;;;;;;;1.35;1.00;;;;;;;;;;1472294;40;20037;-64
2021/05/15 03:45:15;;;;;;;1.67;0.80;;;;;;;;;;1472449;40;20037;-64
2021/05/15 03:46:16;;;;;;;1.63;1.00;;;;;;;;;;1472425;40;20030;-64
2021/05/15 03:47:17;;;;;;;1.38;0.90;;;;;;;;;;1472365;40;20029;-64
2021/05/15 03:48:20;;;;;;;1.75;0.90;;;;;;;;;;1472526;40;20026;-64
2021/05/15 03:49:21;;;;;;;1.08;0.90;;;;;;;;;;1472413;40;20030;-64
2021/05/15 03:50:22;;;;;;;1.45;0.80;;;;;;;;;;1472536;40;20134;-64
2021/05/15 03:51:24;;;;;;;1.73;0.80;;;;;;;;;;1471792;40;20034;-64
2021/05/15 03:52:25;;;;;;;2.65;0.75;;;;;;;;;;1471981;40;20045;-64
2021/05/15 03:53:26;;;;;;;2.15;0.80;;;;;;;;;;1472443;40;20111;-64
2021/05/15 03:54:27;;;;;;;1.30;0.80;;;;;;;;;;1472440;40;20026;-64
2021/05/15 03:55:29;;;;;;;3.15;0.80;;;;;;;;;;1472606;40;20030;-64
2021/05/15 03:56:30;;;;;;;2.55;0.80;;;;;;;;;;1472287;40;20030;-64
2021/05/15 03:57:31;;;;;;;2.22;0.82;;;;;;;;;;1472338;40;20374;-64
2021/05/15 03:58:32;;;;;;;2.38;0.77;;;;;;;;;;1472447;40;20115;-64
2021/05/15 03:59:34;;;;;;;1.02;0.77;;;;;;;;;;1472293;40;20372;-64
2021/05/15 04:00:36;;;;;;;2.28;1.08;;;;;;;;;;1472233;40;20301;-64
2021/05/15 04:01:37;;;;;;;1.10;0.80;;;;;;;;;;1472252;40;20389;-64
2021/05/15 04:02:38;;;;;;;1.98;0.85;;;;;;;;;;1472381;40;20049;-64
2021/05/15 04:03:39;;;;;;;2.35;0.98;;;;;;;;;;1472378;40;20316;-64
2021/05/15 04:04:40;;;;;;;1.88;0.75;;;;;;;;;;1472467;40;20037;-63
2021/05/15 04:05:41;;;;;;;2.13;0.75;;;;;;;;;;1472405;40;20037;-64
2021/05/15 04:06:43;;;;;;;1.85;1.05;;;;;;;;;;1472397;40;20041;-64
2021/05/15 04:07:44;;;;;;;1.63;0.85;;;;;;;;;;1472340;40;20042;-64
2021/05/15 04:08:45;;;;;;;1.38;1.00;;;;;;;;;;1472235;40;20044;-64
2021/05/15 04:09:46;;;;;;;1.98;0.90;;;;;;;;;;1472436;40;20042;-64
2021/05/15 04:10:48;;;;;;;1.50;0.85;;;;;;;;;;1472240;40;20037;-64
2021/05/15 04:11:49;;;;;;;2.70;0.90;;;;;;;;;;1472277;40;20034;-64
2021/05/15 04:12:53;;;;;;;2.35;0.90;;;;;;;;;;1472363;40;20041;-64
2021/05/15 04:13:57;;;;;;;3.00;1.00;;;;;;;;;;1472281;40;20108;-64
2021/05/15 04:15:03;;;;;;;2.30;1.00;;;;;;;;;;1472213;40;20065;-64
2021/05/15 04:16:11;;;;;;;1.90;0.90;;;;;;;;;;1472523;40;20034;-64
2021/05/15 04:17:22;;;;;;;1.75;0.90;;;;;;;;;;1472533;40;20045;-64
2021/05/15 04:18:27;;;;;;;;;;;;;;;;;;1472751;40;20305;-64
2021/05/15 04:19:28;;;;;;;1.75;0.90;;;;;;;;;;1472211;40;19937;-64
2021/05/15 04:20:30;;;;;;;1.70;0.90;;;;;;;;;;1472218;40;20065;-64
2021/05/15 04:21:30;;;;;;;1.80;0.80;;;;;;;;;;1472413;40;20033;-64
2021/05/15 04:22:32;;;;;;;1.65;0.77;;;;;;;;;;1471704;40;20038;-64
2021/05/15 04:23:33;;;;;;;1.65;0.90;;;;;;;;;;1471710;40;20030;-64
2021/05/15 04:24:34;;;;;;;1.23;0.73;;;;;;;;;;1472333;40;20092;-63
2021/05/15 04:25:35;;;;;;;1.52;1.00;;;;;;;;;;1472131;40;20026;-64
2021/05/15 04:26:37;;;;;;;1.55;0.88;;;;;;;;;;1472207;40;20038;-64
2021/05/15 04:27:38;;;;;;;2.60;1.20;;;;;;;;;;1472226;40;20030;-64
2021/05/15 04:28:40;;;;;;;1.60;0.80;;;;;;;;;;1472421;40;20030;-64
2021/05/15 04:29:42;;;;;;;1.50;0.75;;;;;;;;;;1472172;40;20037;-64
2021/05/15 04:30:44;;;;;;;1.50;0.90;;;;;;;;;;1472395;40;20030;-64
2021/05/15 04:31:45;;;;;;;1.30;0.77;;;;;;;;;;1472200;40;20034;-64
2021/05/15 04:32:46;;;;;;;1.48;0.88;;;;;;;;;;1472173;40;20049;-64
2021/05/15 04:33:47;;;;;;;1.70;0.70;;;;;;;;;;1472368;40;20061;-64
2021/05/15 04:34:48;;;;;;;3.17;0.80;;;;;;;;;;1472232;40;20036;-64
2021/05/15 04:35:50;;;;;;;0.82;0.60;;;;;;;;;;1472355;40;20030;-64
2021/05/15 04:36:51;;;;;;;1.38;0.88;;;;;;;;;;1472203;40;20116;-64
2021/05/15 04:37:53;;;;;;;1.83;1.00;;;;;;;;;;1472345;40;20056;-64
2021/05/15 04:38:54;;;;;;;2.63;0.85;;;;;;;;;;1472189;40;20372;-64
2021/05/15 04:39:55;;;;;;;1.17;0.75;;;;;;;;;;1472401;40;20026;-64
2021/05/15 04:40:56;;;;;;;0.90;0.68;;;;;;;;;;1472345;40;20030;-64
2021/05/15 04:41:59;;;;;;;1.23;0.73;;;;;;;;;;1472333;40;20030;-64
2021/05/15 04:43:00;;;;;;;1.85;0.80;;;;;;;;;;1472313;40;20026;-64
2021/05/15 04:44:01;;;;;;;1.17;0.70;;;;;;;;;;1472397;40;20022;-64
2021/05/15 04:45:03;;;;;;;2.50;0.82;;;;;;;;;;1472280;40;20030;-64
2021/05/15 04:46:04;;;;;;;1.38;0.80;;;;;;;;;;1472347;40;20112;-64
2021/05/15 04:47:05;;;;;;;2.97;1.10;;;;;;;;;;1472225;40;20376;-64
2021/05/15 04:48:06;;;;;;;2.28;0.80;;;;;;;;;;1472340;40;20026;-64
2021/05/15 04:49:08;;;;;;;1.63;0.80;;;;;;;;;;1472291;40;20037;-64
2021/05/15 04:50:10;;;;;;;1.63;0.70;;;;;;;;;;1472163;40;20026;-64
2021/05/15 04:51:12;;;;;;;1.90;0.90;;;;;;;;;;1472208;40;20103;-64
2021/05/15 04:52:13;;;;;;;2.47;0.90;;;;;;;;;;1472140;40;20034;-64
2021/05/15 04:53:14;;;;;;;1.35;0.70;;;;;;;;;;1472186;40;20033;-64
2021/05/15 04:54:15;;;;;;;1.80;0.70;;;;;;;;;;1472294;40;20038;-64
2021/05/15 04:55:16;;;;;;;1.20;0.77;;;;;;;;;;1472096;40;20298;-64
2021/05/15 04:56:17;;;;;;;1.63;0.80;;;;;;;;;;1472332;40;20034;-64
2021/05/15 04:57:19;;;;;;;2.97;0.98;;;;;;;;;;1472323;40;20043;-64
2021/05/15 04:58:20;;;;;;;1.13;0.80;;;;;;;;;;1472113;40;20037;-64
2021/05/15 04:59:21;;;;;;;0.80;0.65;;;;;;;;;;1472165;40;20038;-64
2021/05/15 05:00:22;;;;;;;1.55;0.70;;;;;;;;;;1472500;40;20030;-64
2021/05/15 05:01:23;;;;;;;1.20;0.65;;;;;;;;;;1472297;40;20029;-64
2021/05/15 05:02:25;;;;;;;2.08;0.90;;;;;;;;;;1472122;40;20033;-64
2021/05/15 05:03:25;;;;;;;1.08;0.63;;;;;;;;;;1472177;40;20309;-64
2021/05/15 05:04:27;;;;;;;2.50;0.93;;;;;;;;;;1472315;40;20037;-64
2021/05/15 05:05:28;;;;;;;0.73;0.60;;;;;;;;;;1472245;40;20034;-64
2021/05/15 05:06:29;;;;;;;1.20;0.75;;;;;;;;;;1472098;40;20142;-64
2021/05/15 05:07:30;;;;;;;2.13;0.70;;;;;;;;;;1472127;40;20026;-64
2021/05/15 05:08:31;;;;;;;1.42;0.77;;;;;;;;;;1472062;40;20034;-64
2021/05/15 05:09:32;;;;;;;0.95;0.70;;;;;;;;;;1472117;40;20029;-64
2021/05/15 05:10:33;;;;;;;2.17;0.80;;;;;;;;;;1472102;40;20041;-64
2021/05/15 05:11:34;;;;;;;1.52;0.82;;;;;;;;;;1472291;40;20033;-64
2021/05/15 05:12:36;;;;;;;2.75;0.80;;;;;;;;;;1472260;40;20056;-64
2021/05/15 05:13:37;;;;;;;1.55;0.70;;;;;;;;;;1472303;40;20116;-64
2021/05/15 05:14:38;;;;;;;1.98;1.00;;;;;;;;;;1472175;40;20372;-64
2021/05/15 05:15:39;;;;;;;2.17;0.80;;;;;;;;;;1472282;40;20097;-64
2021/05/15 05:16:40;;;;;;;1.33;0.73;;;;;;;;;;1472191;40;20061;-63
2021/05/15 05:17:41;;;;;;;1.58;0.77;;;;;;;;;;1472272;40;20034;-64
2021/05/15 05:18:43;;;;;;;1.33;0.80;;;;;;;;;;1472242;40;20365;-64
2021/05/15 05:19:43;;;;;;;1.67;0.68;;;;;;;;;;1472044;40;20041;-64
2021/05/15 05:20:45;;;;;;;1.80;0.88;;;;;;;;;;1472056;40;20033;-64
2021/05/15 05:21:45;;;;;;;1.60;0.80;;;;;;;;;;1472216;40;20037;-64
2021/05/15 05:22:47;;;;;;;1.52;0.68;;;;;;;;;;1472056;40;20309;-64
2021/05/15 05:23:47;;;;;;;1.10;0.65;;;;;;;;;;1472244;40;20029;-64
2021/05/15 05:24:49;;;;;;;2.17;0.95;;;;;;;;;;1472067;40;20400;-64
2021/05/15 05:25:50;;;;;;;1.63;0.80;;;;;;;;;;1472068;40;20041;-64
2021/05/15 05:26:51;;;;;;;1.40;0.80;;;;;;;;;;1472249;40;20063;-64
2021/05/15 05:27:53;;;;;;;1.40;0.80;;;;;;;;;;1472039;40;20131;-64
2021/05/15 05:28:54;;;;;;;2.17;0.80;;;;;;;;;;1472206;40;20070;-64
2021/05/15 05:29:55;;;;;;;2.53;0.80;;;;;;;;;;1472118;40;20033;-64
2021/05/15 05:30:56;;;;;;;1.98;0.80;;;;;;;;;;1472327;40;20030;-64
2021/05/15 05:31:57;;;;;;;1.17;0.70;;;;;;;;;;1472075;40;20026;-64
2021/05/15 05:32:59;;;;;;;1.98;0.80;;;;;;;;;;1472167;40;20030;-64
2021/05/15 05:34:00;;;;;;;0.82;0.60;;;;;;;;;;1472089;40;20398;-64
2021/05/15 05:35:03;;;;;;;2.25;0.85;;;;;;;;;;1472181;40;20030;-64
2021/05/15 05:36:04;;;;;;;1.60;0.80;;;;;;;;;;1472107;40;20030;-64
2021/05/15 05:37:06;;;;;;;1.13;0.70;;;;;;;;;;1472181;40;20026;-64
2021/05/15 05:38:07;;;;;;;1.73;0.80;;;;;;;;;;1472077;40;20042;-64
2021/05/15 05:39:11;;;;;;;1.80;0.98;;;;;;;;;;1472007;40;20030;-64
2021/05/15 05:40:14;;;;;;;2.10;1.05;;;;;;;;;;1472019;40;20030;-64
2021/05/15 05:41:15;;;;;;;2.58;1.08;;;;;;;;;;1472075;40;20274;-64
2021/05/15 05:42:16;;;;;;;1.20;0.82;;;;;;;;;;1471923;40;20345;-64
2021/05/15 05:43:18;;;;;;;2.05;1.10;;;;;;;;;;1472166;40;20034;-64
2021/05/15 05:44:19;;;;;;;2.40;1.50;;;;;;;;;;1471865;40;20386;-64
2021/05/15 05:45:20;;;;;;;2.47;1.50;;;;;;;;;;1471684;40;20041;-64
2021/05/15 05:46:21;;;;;;;1.58;1.10;;;;;;;;;;1472174;40;20026;-63
2021/05/15 05:47:22;;;;;;;1.77;1.33;;;;;;;;;;1472177;40;20034;-64
2021/05/15 05:48:23;;;;;;;1.98;1.10;;;;;;;;;;1472132;40;20037;-64
2021/05/15 05:49:24;;;;;;;3.30;1.50;;;;;;;;;;1472049;40;20026;-64
2021/05/15 05:50:25;;;;;;;3.45;1.60;;;;;;;;;;1472154;40;20032;-64
2021/05/15 05:51:27;;;;;;;2.33;1.60;;;;;;;;;;1472177;40;20049;-64
2021/05/15 05:52:27;;;;;;;1.67;1.40;;;;;;;;;;1471972;40;20045;-64
2021/05/15 05:53:29;;;;;;;2.85;1.55;;;;;;;;;;1472244;40;20030;-64
2021/05/15 05:54:30;;;;;;;3.28;1.88;;;;;;;;;;1472246;40;20120;-64
2021/05/15 05:55:31;;;;;;;3.65;2.13;;;;;;;;;;1472098;40;20124;-64
2021/05/15 05:56:32;;;;;;;2.80;2.28;;;;;;;;;;1472122;40;20026;-64
2021/05/15 05:57:33;;;;;;;2.88;2.38;;;;;;;;;;1472026;40;20042;-64
2021/05/15 05:58:35;;;;;;;2.70;2.13;;;;;;;;;;1471965;40;20416;-64
2021/05/15 05:59:36;;;;;;;2.90;2.00;;;;;;;;;;1472137;40;20081;-64
2021/05/15 06:00:37;;;;;;;3.55;2.55;;;;;;;;;;1472176;40;20027;-64
2021/05/15 06:01:39;;;;;;;3.25;2.58;;;;;;;;;;1472134;40;20033;-64
2021/05/15 06:02:43;;;;;;;3.78;2.58;;;;;;;;;;1472133;40;20049;-64
2021/05/15 06:03:44;;;;;;;4.07;1.95;;;;;;;;;;1472091;40;20030;-64
2021/05/15 06:04:45;;;;;;;2.47;1.30;;;;;;;;;;1471899;40;20088;-64
2021/05/15 06:05:47;;;;;;;2.20;1.50;;;;;;;;;;1471883;40;20123;-64
2021/05/15 06:06:47;;;;;;;2.47;1.58;;;;;;;;;;1471921;40;20038;-64
2021/05/15 06:07:49;;;;;;;2.45;1.77;;;;;;;;;;1472082;40;20026;-63
2021/05/15 06:08:50;;;;;;;2.45;1.63;;;;;;;;;;1471942;40;20042;-64